Time;durP1;ratioP1;P1;durP2;ratioP2;P2;SDS_P1;SDS_P2;PMS_P1;PMS_P2;Temp;Humidity;BMP_temperature;BMP_pressure;BME280_temperature;BME280_humidity;BME280_pressure;Samples;Min_cycle;Max_cycle;Signal;HPM_P1;HPM_P2
2021/07/24 00:01:15;;;;;;;1.00;0.80;;;29.30;97.50;;;;;;6217800;23;20259;-93
2021/07/24 00:03:46;;;;;;;2.47;0.90;;;29.30;97.50;;;;;;6219423;23;20179;-93
2021/07/24 00:06:17;;;;;;;1.17;0.77;;;29.40;97.80;;;;;;6218322;23;20188;-93
2021/07/24 00:08:51;;;;;;;1.20;1.00;;;29.20;96.60;;;;;;6218935;23;20172;-94
2021/07/24 00:11:23;;;;;;;4.23;1.40;;;29.20;97.10;;;;;;6218752;23;20532;-95
2021/07/24 00:13:55;;;;;;;2.93;1.00;;;29.10;97.00;;;;;;6217257;23;20622;-91
2021/07/24 00:16:27;;;;;;;1.67;0.80;;;29.10;97.60;;;;;;6218015;23;20631;-93
2021/07/24 00:18:58;;;;;;;3.57;1.10;;;29.20;96.70;;;;;;6217455;23;20248;-94
2021/07/24 00:21:30;;;;;;;3.20;1.20;;;29.00;97.50;;;;;;6213480;23;20283;-94
2021/07/24 00:24:01;;;;;;;1.83;0.97;;;29.20;97.70;;;;;;6217437;23;20247;-93
2021/07/24 00:26:35;;;;;;;2.10;0.80;;;29.40;97.30;;;;;;6217421;23;20188;-93
2021/07/24 00:29:06;;;;;;;2.10;0.90;;;29.30;96.80;;;;;;6220321;23;20180;-94
2021/07/24 00:31:37;;;;;;;1.13;0.73;;;29.30;96.40;;;;;;6217486;23;20225;-94
2021/07/24 00:34:10;;;;;;;1.90;0.90;;;28.90;96.90;;;;;;6217933;23;20171;-95
2021/07/24 00:36:41;;;;;;;2.40;0.90;;;28.90;98.00;;;;;;6218384;23;20176;-94
2021/07/24 00:39:12;;;;;;;1.67;1.00;;;28.80;97.50;;;;;;6218131;23;20211;-94
2021/07/24 00:41:50;;;;;;;1.83;0.90;;;28.90;97.90;;;;;;6219443;23;20230;-94
2021/07/24 00:44:25;;;;;;;2.40;0.70;;;28.80;97.20;;;;;;6219796;23;20183;-95
2021/07/24 00:46:58;;;;;;;1.33;0.60;;;28.60;97.20;;;;;;6240875;23;20175;-95
2021/07/24 00:49:32;;;;;;;2.77;0.60;;;28.40;97.20;;;;;;6240447;23;20180;-92
2021/07/24 00:52:03;;;;;;;1.23;0.80;;;28.30;97.60;;;;;;6202453;23;20211;-93
2021/07/24 00:54:36;;;;;;;1.77;0.77;;;28.40;98.10;;;;;;6217752;23;20187;-94
2021/07/24 00:57:13;;;;;;;1.37;0.80;;;28.40;96.90;;;;;;6225807;23;20187;-96
2021/07/24 00:59:44;;;;;;;2.10;1.00;;;28.30;97.50;;;;;;6218765;23;20172;-89
2021/07/24 01:02:15;;;;;;;0.90;0.70;;;28.20;97.90;;;;;;6190936;23;20759;-90
2021/07/24 01:04:47;;;;;;;0.50;0.50;;;28.20;98.30;;;;;;6190696;23;20172;-90
2021/07/24 01:07:19;;;;;;;1.13;0.83;;;28.30;97.50;;;;;;6216193;23;20176;-90
2021/07/24 01:09:51;;;;;;;1.57;0.97;;;28.80;97.70;;;;;;6215507;23;20885;-90
2021/07/24 01:12:25;;;;;;;1.53;0.90;;;29.00;97.20;;;;;;6190226;23;20218;-91
2021/07/24 01:14:56;;;;;;;1.43;0.67;;;29.50;97.00;;;;;;6216257;23;20196;-90
2021/07/24 01:17:28;;;;;;;1.70;0.60;;;30.00;97.10;;;;;;6216065;23;20184;-91
2021/07/24 01:19:59;;;;;;;2.43;0.60;;;30.20;96.20;;;;;;6217749;23;20208;-91
2021/07/24 01:22:33;;;;;;;1.57;0.87;;;30.30;96.30;;;;;;6214781;23;20233;-91
2021/07/24 01:25:04;;;;;;;1.10;0.60;;;30.50;96.10;;;;;;6215947;23;20176;-91
2021/07/24 01:27:43;;;;;;;1.80;0.60;;;30.40;96.30;;;;;;6215770;23;20188;-92
2021/07/24 01:30:15;;;;;;;0.67;0.50;;;30.60;96.10;;;;;;6216534;23;20204;-92
2021/07/24 01:32:47;;;;;;;4.67;1.00;;;30.20;97.00;;;;;;6215625;23;20267;-92
2021/07/24 01:35:18;;;;;;;1.57;0.80;;;30.50;96.90;;;;;;6217200;23;20235;-92
2021/07/24 01:37:52;;;;;;;3.30;0.77;;;30.80;96.20;;;;;;6218262;23;20180;-91
2021/07/24 01:40:25;;;;;;;3.03;1.00;;;31.10;95.60;;;;;;6215355;23;20180;-92
2021/07/24 01:42:59;;;;;;;1.67;1.10;;;30.40;95.70;;;;;;6215939;23;20724;-93
2021/07/24 01:45:31;;;;;;;1.47;0.73;;;30.50;96.20;;;;;;6220303;23;21009;-94
2021/07/24 01:48:04;;;;;;;2.23;0.60;;;30.60;95.60;;;;;;6216474;23;20176;-91
2021/07/24 01:53:27;;;;;;;2.33;0.67;;;30.50;96.50;;;;;;6214264;23;20187;-92
2021/07/24 01:56:02;;;;;;;1.03;0.60;;;30.40;96.00;;;;;;6215354;23;20195;-92
2021/07/24 01:58:36;;;;;;;1.57;0.73;;;30.10;96.50;;;;;;6225927;23;20175;-95
2021/07/24 02:01:08;;;;;;;0.83;0.60;;;30.00;96.50;;;;;;6238034;23;20246;-95
2021/07/24 02:03:43;;;;;;;1.07;0.50;;;29.70;96.50;;;;;;6233960;23;20188;-95
2021/07/24 02:06:14;;;;;;;0.77;0.60;;;30.00;96.60;;;;;;6247774;22;20207;-95
2021/07/24 02:08:50;;;;;;;1.20;0.63;;;30.30;96.30;;;;;;6265149;23;20167;-94
2021/07/24 02:11:22;;;;;;;1.90;0.50;;;29.80;96.80;;;;;;6250131;23;20691;-95
2021/07/24 02:13:55;;;;;;;0.60;0.60;;;29.50;96.90;;;;;;6249757;23;20176;-94
2021/07/24 02:16:27;;;;;;;1.50;0.70;;;29.10;97.30;;;;;;6247798;23;20194;-94
2021/07/24 02:19:00;;;;;;;0.50;0.50;;;28.40;97.70;;;;;;6248384;23;20254;-93
2021/07/24 02:21:33;;;;;;;0.60;0.40;;;27.50;98.60;;;;;;6245685;23;20586;-92
2021/07/24 02:24:06;;;;;;;2.77;0.73;;;26.90;99.30;;;;;;6245599;23;20630;-92
2021/07/24 02:26:44;;;;;;;1.30;0.60;;;26.40;99.70;;;;;;6245368;23;20180;-92
2021/07/24 02:29:15;;;;;;;0.90;0.60;;;26.00;99.90;;;;;;6246179;23;20210;-92
2021/07/24 02:31:47;;;;;;;0.80;0.60;;;25.70;99.90;;;;;;6244674;23;20634;-92
2021/07/24 02:34:19;;;;;;;0.70;0.53;;;25.60;99.90;;;;;;6246116;23;20172;-93
2021/07/24 02:36:50;;;;;;;3.23;0.60;;;25.50;99.90;;;;;;6246181;23;20225;-94
2021/07/24 02:39:22;;;;;;;0.70;0.50;;;25.20;99.90;;;;;;6246694;23;20179;-94
2021/07/24 02:41:53;;;;;;;1.73;0.60;;;25.00;99.90;;;;;;6244639;23;20218;-91
2021/07/24 02:44:24;;;;;;;1.17;0.57;;;24.90;99.90;;;;;;6246156;23;20167;-92
2021/07/24 02:46:56;;;;;;;0.77;0.60;;;24.70;99.90;;;;;;6245736;23;20198;-92
2021/07/24 02:49:27;;;;;;;0.60;0.57;;;24.50;99.90;;;;;;6195387;23;20191;-90
2021/07/24 02:51:58;;;;;;;1.10;0.60;;;24.40;99.90;;;;;;6245981;23;20179;-91
2021/07/24 02:54:33;;;;;;;0.60;0.60;;;24.30;99.90;;;;;;6247080;23;20176;-94
2021/07/24 02:57:05;;;;;;;1.83;0.50;;;24.20;99.90;;;;;;6249448;23;20179;-94
2021/07/24 02:59:37;;;;;;;1.27;0.50;;;24.10;99.90;;;;;;6248574;23;20182;-94
2021/07/24 03:02:07;;;;;;;0.73;0.60;;;23.90;99.90;;;;;;6247298;23;20218;-94
2021/07/24 03:04:39;;;;;;;1.70;0.60;;;23.90;99.90;;;;;;6250946;23;20182;-93
2021/07/24 03:07:10;;;;;;;3.00;0.70;;;23.70;99.90;;;;;;6224015;23;20184;-93
2021/07/24 03:09:45;;;;;;;0.60;0.40;;;23.60;99.90;;;;;;6242737;23;20164;-94
2021/07/24 03:12:18;;;;;;;0.43;0.40;;;23.50;99.90;;;;;;6243001;22;20220;-94
2021/07/24 03:14:49;;;;;;;0.73;0.60;;;23.40;99.90;;;;;;6239021;22;20183;-95
2021/07/24 03:17:22;;;;;;;0.63;0.40;;;23.20;99.90;;;;;;6224585;23;20173;-95
2021/07/24 03:19:53;;;;;;;0.40;0.30;;;23.00;99.90;;;;;;6223657;23;20205;-95
2021/07/24 03:22:24;;;;;;;0.60;0.40;;;22.80;99.90;;;;;;6220673;23;20207;-94
2021/07/24 03:25:00;;;;;;;0.90;0.50;;;22.80;99.90;;;;;;6219047;23;20176;-94
2021/07/24 03:27:32;;;;;;;0.83;0.33;;;22.60;99.90;;;;;;6221169;23;20173;-94
2021/07/24 03:30:04;;;;;;;2.20;0.40;;;22.50;99.90;;;;;;6219978;23;20202;-94
2021/07/24 03:32:36;;;;;;;1.47;0.47;;;22.30;99.90;;;;;;6217523;23;20259;-94
2021/07/24 03:35:15;;;;;;;0.67;0.60;;;22.30;99.90;;;;;;6231477;23;20246;-95
2021/07/24 03:37:52;;;;;;;1.07;0.50;;;22.10;99.90;;;;;;6233535;23;20242;-94
2021/07/24 03:43:22;;;;;;;0.77;0.50;;;22.00;99.90;;;;;;6232737;23;20208;-94
2021/07/24 03:45:55;;;;;;;1.10;0.57;;;21.90;99.90;;;;;;6219332;23;20192;-94
2021/07/24 03:48:26;;;;;;;1.83;0.80;;;21.80;99.90;;;;;;6221078;23;20239;-94
2021/07/24 03:50:58;;;;;;;1.47;0.53;;;21.70;99.90;;;;;;6220966;23;20188;-95
2021/07/24 03:53:28;;;;;;;0.87;0.67;;;21.60;99.90;;;;;;6220813;23;20193;-94
2021/07/24 03:56:01;;;;;;;1.03;0.70;;;21.50;99.90;;;;;;6219939;23;20240;-94
2021/07/24 03:58:33;;;;;;;2.20;0.97;;;21.40;99.90;;;;;;6222184;23;20168;-93
2021/07/24 04:01:09;;;;;;;1.90;0.70;;;21.40;99.90;;;;;;6223245;23;20181;-93
2021/07/24 04:03:40;;;;;;;1.60;1.00;;;21.30;99.90;;;;;;6222732;23;20256;-94
2021/07/24 04:06:18;;;;;;;1.80;0.87;;;21.20;99.90;;;;;;6239471;23;20215;-95
2021/07/24 04:08:50;;;;;;;1.63;1.00;;;21.00;99.90;;;;;;6254455;23;20175;-95
2021/07/24 04:11:23;;;;;;;1.90;0.90;;;20.90;99.90;;;;;;6254512;23;20196;-94
2021/07/24 04:13:56;;;;;;;1.90;0.90;;;20.90;99.90;;;;;;6255443;23;20230;-95
2021/07/24 04:16:28;;;;;;;1.77;0.90;;;20.70;99.90;;;;;;6254519;23;20192;-94
2021/07/24 04:19:03;;;;;;;1.37;0.90;;;20.70;99.90;;;;;;6254785;23;20187;-95
2021/07/24 04:21:40;;;;;;;3.67;0.97;;;20.60;99.90;;;;;;6256783;23;20704;-95
2021/07/24 04:24:18;;;;;;;1.67;1.03;;;20.50;99.90;;;;;;6258674;23;20238;-95
2021/07/24 04:26:51;;;;;;;1.47;1.10;;;20.40;99.90;;;;;;6216177;23;20175;-95
2021/07/24 04:29:24;;;;;;;1.73;1.40;;;20.40;99.90;;;;;;6273047;22;20232;-95
2021/07/24 04:31:55;;;;;;;1.73;1.10;;;20.30;99.90;;;;;;6272390;22;20155;-93
2021/07/24 04:34:27;;;;;;;1.50;1.20;;;20.20;99.90;;;;;;6247588;22;20162;-95
2021/07/24 04:37:00;;;;;;;1.97;1.40;;;20.20;99.90;;;;;;6247815;23;20187;-95
2021/07/24 04:39:34;;;;;;;2.27;1.40;;;20.10;99.90;;;;;;6270182;23;20190;-95
2021/07/24 04:42:07;;;;;;;1.53;1.00;;;20.10;99.90;;;;;;6262428;23;20179;-93
2021/07/24 04:44:41;;;;;;;1.00;1.00;;;20.00;99.90;;;;;;6251266;23;20164;-92
2021/07/24 04:47:15;;;;;;;1.13;0.90;;;20.00;99.90;;;;;;6255479;23;20278;-92
2021/07/24 04:49:53;;;;;;;2.30;1.30;;;20.00;99.90;;;;;;6252616;23;20171;-92
2021/07/24 04:52:26;;;;;;;2.33;1.10;;;19.90;99.90;;;;;;6249028;23;20203;-92
2021/07/24 04:54:58;;;;;;;1.47;1.20;;;19.80;99.90;;;;;;6251463;23;20175;-93
2021/07/24 04:57:33;;;;;;;1.50;1.30;;;19.80;99.90;;;;;;6252155;23;20175;-92
2021/07/24 05:00:07;;;;;;;2.17;1.23;;;19.80;99.90;;;;;;6249749;23;20244;-92
2021/07/24 05:02:38;;;;;;;4.60;1.20;;;19.70;99.90;;;;;;6250150;23;20215;-93
2021/07/24 05:05:11;;;;;;;6.43;1.97;;;19.60;99.90;;;;;;6252724;23;20184;-92
2021/07/24 05:07:42;;;;;;;5.47;1.83;;;19.60;99.90;;;;;;6225991;23;20184;-93
2021/07/24 05:10:17;;;;;;;4.63;1.80;;;19.50;99.90;;;;;;6261995;23;20258;-94
2021/07/24 05:13:09;;;;;;;1.37;1.23;;;19.50;99.90;;;;;;6266147;23;20704;-93
2021/07/24 05:15:42;;;;;;;1.70;1.13;;;19.40;99.90;;;;;;6241007;23;20168;-91
2021/07/24 05:18:15;;;;;;;3.43;1.20;;;19.30;99.90;;;;;;6263736;23;20175;-93
2021/07/24 05:20:52;;;;;;;2.60;1.20;;;19.30;99.90;;;;;;6264477;23;20175;-93
2021/07/24 05:23:25;;;;;;;1.60;1.00;;;19.20;99.90;;;;;;6238402;23;20252;-93
2021/07/24 05:25:57;;;;;;;3.30;1.37;;;19.20;99.90;;;;;;6264056;23;20172;-93
2021/07/24 05:28:33;;;;;;;2.10;1.17;;;19.20;99.90;;;;;;6264201;23;20184;-93
2021/07/24 05:31:20;;;;;;;3.10;0.93;;;19.10;99.90;;;;;;6261804;23;20179;-92
2021/07/24 05:33:53;;;;;;;1.20;0.97;;;19.20;99.90;;;;;;6244903;23;20201;-92
2021/07/24 05:36:29;;;;;;;1.40;1.20;;;19.10;99.90;;;;;;6271636;23;20223;-92
2021/07/24 05:39:06;;;;;;;1.63;1.37;;;19.00;99.90;;;;;;6221809;23;20175;-93
2021/07/24 05:41:37;;;;;;;1.10;1.00;;;19.00;99.90;;;;;;6232343;23;20215;-91
2021/07/24 05:44:12;;;;;;;2.27;1.37;;;19.00;99.90;;;;;;6225757;23;20204;-92
2021/07/24 05:46:46;;;;;;;1.30;1.00;;;19.00;99.90;;;;;;6249568;23;20180;-91
2021/07/24 05:49:19;;;;;;;1.60;1.10;;;19.00;99.90;;;;;;6249894;23;20622;-91
2021/07/24 05:51:50;;;;;;;1.77;1.20;;;18.90;99.90;;;;;;6248872;23;20195;-91
2021/07/24 05:54:22;;;;;;;1.20;1.10;;;18.90;99.90;;;;;;6249965;23;20175;-91
2021/07/24 05:56:54;;;;;;;1.27;1.10;;;18.80;99.90;;;;;;6250208;23;20190;-90
2021/07/24 05:59:27;;;;;;;2.00;1.00;;;18.80;99.90;;;;;;6249944;23;20175;-91
2021/07/24 06:01:58;;;;;;;1.80;0.90;;;18.80;99.90;;;;;;6249079;23;20196;-91
2021/07/24 06:04:30;;;;;;;1.30;1.10;;;18.80;99.90;;;;;;6248213;23;20272;-92
2021/07/24 06:07:02;;;;;;;1.80;0.97;;;18.70;99.90;;;;;;6246890;23;20191;-91
2021/07/24 06:09:33;;;;;;;1.40;1.10;;;18.70;99.90;;;;;;6247548;23;20169;-92
2021/07/24 06:12:04;;;;;;;1.47;1.10;;;18.60;99.90;;;;;;6219110;23;20179;-92
2021/07/24 06:14:38;;;;;;;1.60;1.30;;;18.60;99.90;;;;;;6246301;23;20176;-92
2021/07/24 06:17:09;;;;;;;2.00;0.90;;;18.60;99.90;;;;;;6247400;23;20164;-92
2021/07/24 06:19:40;;;;;;;1.20;1.10;;;18.60;99.90;;;;;;6248110;23;20160;-91
2021/07/24 06:22:11;;;;;;;2.10;1.00;;;18.50;99.90;;;;;;6246263;23;20172;-92
2021/07/24 06:24:43;;;;;;;1.57;1.20;;;18.50;99.90;;;;;;6247141;23;20213;-92
2021/07/24 06:27:14;;;;;;;2.63;1.37;;;18.40;99.90;;;;;;6247087;23;20218;-91
2021/07/24 06:29:49;;;;;;;1.30;1.20;;;18.30;99.90;;;;;;6247261;23;20218;-91
2021/07/24 06:32:20;;;;;;;1.43;1.00;;;18.30;99.90;;;;;;6246349;23;20199;-91
2021/07/24 06:34:50;;;;;;;1.40;1.13;;;18.30;99.90;;;;;;6247792;23;20226;-91
2021/07/24 06:37:21;;;;;;;1.73;1.30;;;18.20;99.90;;;;;;6247597;23;20692;-90
2021/07/24 06:39:54;;;;;;;1.50;1.07;;;18.20;99.90;;;;;;6221406;23;20194;-90
2021/07/24 06:42:24;;;;;;;1.63;1.10;;;18.10;99.90;;;;;;6247722;23;20225;-90
2021/07/24 06:44:58;;;;;;;1.70;1.20;;;18.10;99.90;;;;;;6249221;23;20287;-91
2021/07/24 06:47:29;;;;;;;1.83;1.17;;;18.10;99.90;;;;;;6249496;23;20175;-91
2021/07/24 06:50:00;;;;;;;1.97;1.13;;;18.10;99.90;;;;;;6249133;23;20199;-91
2021/07/24 06:52:32;;;;;;;2.23;1.30;;;18.10;99.90;;;;;;6249111;23;20195;-92
2021/07/24 06:55:05;;;;;;;1.90;1.30;;;18.00;99.90;;;;;;6249814;23;20606;-91
2021/07/24 06:57:38;;;;;;;2.10;1.50;;;18.00;99.90;;;;;;6249906;23;20182;-92
2021/07/24 07:00:15;;;;;;;1.97;1.20;;;18.00;99.90;;;;;;6250061;23;20493;-91
2021/07/24 07:02:46;;;;;;;3.23;1.40;;;17.90;99.90;;;;;;6247811;23;20179;-91
2021/07/24 07:05:18;;;;;;;1.83;1.40;;;17.90;99.90;;;;;;6249305;23;20261;-91
2021/07/24 07:07:51;;;;;;;1.27;1.17;;;17.90;99.90;;;;;;6249980;23;20721;-91
2021/07/24 07:10:23;;;;;;;2.00;1.47;;;17.90;99.90;;;;;;6249138;23;20178;-91
2021/07/24 07:12:59;;;;;;;1.37;1.23;;;17.90;99.90;;;;;;6248368;23;20183;-91
2021/07/24 07:15:32;;;;;;;2.30;1.20;;;17.80;99.90;;;;;;6249254;23;20564;-91
2021/07/24 07:18:04;;;;;;;2.47;1.20;;;17.80;99.90;;;;;;6248993;23;20255;-91
2021/07/24 07:20:36;;;;;;;2.10;1.50;;;17.70;99.90;;;;;;6223268;23;20222;-91
2021/07/24 07:23:08;;;;;;;3.07;1.33;;;17.70;99.90;;;;;;6246703;23;20184;-91
2021/07/24 07:25:40;;;;;;;1.80;1.50;;;17.60;99.90;;;;;;6221884;23;20199;-89
2021/07/24 07:28:13;;;;;;;4.03;1.40;;;17.60;99.90;;;;;;6247420;23;20222;-91
2021/07/24 07:30:46;;;;;;;1.90;1.70;;;17.60;99.90;;;;;;6248010;23;20170;-90
2021/07/24 07:33:21;;;;;;;2.47;1.30;;;17.60;99.90;;;;;;6247502;23;20175;-91
2021/07/24 07:35:52;;;;;;;2.47;1.27;;;17.50;99.90;;;;;;6249838;23;20164;-90
2021/07/24 07:38:24;;;;;;;7.00;1.50;;;17.50;99.90;;;;;;6249857;23;20251;-90
2021/07/24 07:40:56;;;;;;;1.40;1.30;;;17.50;99.90;;;;;;6224788;23;20215;-90
2021/07/24 07:43:28;;;;;;;1.43;1.33;;;17.50;99.90;;;;;;6257543;23;20224;-90
2021/07/24 07:46:02;;;;;;;2.00;1.27;;;17.40;99.90;;;;;;6258539;23;20207;-90
2021/07/24 07:48:36;;;;;;;1.90;1.60;;;17.40;99.90;;;;;;6262085;23;20168;-90
2021/07/24 07:51:09;;;;;;;3.00;1.30;;;17.30;99.90;;;;;;6232229;23;20176;-91
2021/07/24 07:53:40;;;;;;;3.27;1.07;;;17.20;99.90;;;;;;6271000;22;20174;-91
2021/07/24 07:56:12;;;;;;;2.83;1.30;;;17.20;99.90;;;;;;6273902;22;20207;-90
2021/07/24 07:58:43;;;;;;;1.97;1.43;;;17.20;99.90;;;;;;6271410;22;20188;-92
2021/07/24 08:01:17;;;;;;;2.67;1.30;;;17.20;99.90;;;;;;6268201;23;20222;-92
2021/07/24 08:03:49;;;;;;;3.63;1.40;;;17.10;99.90;;;;;;6269796;23;20185;-92
2021/07/24 08:06:20;;;;;;;1.93;1.03;;;17.10;99.90;;;;;;6261089;23;20179;-92
2021/07/24 08:08:53;;;;;;;2.07;1.17;;;17.10;99.90;;;;;;6251536;23;20175;-91
2021/07/24 08:11:26;;;;;;;1.97;1.43;;;17.10;99.90;;;;;;6250157;23;20195;-92
2021/07/24 08:13:57;;;;;;;2.40;1.30;;;17.10;99.90;;;;;;6254051;23;20176;-92
2021/07/24 08:16:31;;;;;;;3.20;1.50;;;17.10;99.90;;;;;;6224864;23;20181;-91
2021/07/24 08:19:03;;;;;;;3.50;1.60;;;17.00;99.90;;;;;;6250554;23;20186;-92
2021/07/24 08:21:34;;;;;;;3.13;1.40;;;17.00;99.90;;;;;;6248627;23;20176;-91
2021/07/24 08:24:06;;;;;;;2.53;1.47;;;17.00;99.90;;;;;;6252689;23;20614;-91
2021/07/24 08:26:38;;;;;;;2.90;1.60;;;17.00;99.90;;;;;;6253035;23;20175;-91
2021/07/24 08:29:09;;;;;;;1.50;1.40;;;17.00;99.90;;;;;;6252693;23;20611;-91
2021/07/24 08:31:43;;;;;;;2.30;1.67;;;17.00;99.90;;;;;;6251652;23;20178;-90
2021/07/24 08:34:14;;;;;;;2.57;1.43;;;17.00;99.90;;;;;;6252033;23;20171;-91
2021/07/24 08:36:46;;;;;;;3.83;1.53;;;17.00;99.90;;;;;;6252222;23;20590;-91
2021/07/24 08:39:17;;;;;;;3.40;1.47;;;16.90;99.90;;;;;;6250132;23;20175;-91
2021/07/24 08:41:49;;;;;;;1.80;1.37;;;16.90;99.90;;;;;;6248587;23;20176;-91
2021/07/24 08:44:22;;;;;;;2.60;1.60;;;16.90;99.90;;;;;;6248969;23;20191;-91
2021/07/24 08:46:57;;;;;;;3.43;1.30;;;16.80;99.90;;;;;;6223357;23;20180;-91
2021/07/24 08:49:28;;;;;;;3.57;1.50;;;16.70;99.90;;;;;;6249049;23;20174;-91
2021/07/24 08:52:01;;;;;;;2.70;1.40;;;16.60;99.90;;;;;;6248512;23;20175;-91
2021/07/24 08:54:35;;;;;;;2.17;1.47;;;16.60;99.90;;;;;;6248991;23;20167;-87
2021/07/24 08:57:09;;;;;;;2.63;1.50;;;16.60;99.90;;;;;;6249251;23;20171;-92
2021/07/24 08:59:42;;;;;;;2.87;1.40;;;16.60;99.90;;;;;;6248014;23;20164;-92
2021/07/24 09:02:16;;;;;;;2.60;1.50;;;16.60;99.90;;;;;;6197121;23;20176;-91
2021/07/24 09:04:48;;;;;;;3.17;1.50;;;16.60;99.90;;;;;;6248882;23;20195;-93
2021/07/24 09:07:22;;;;;;;2.17;1.60;;;16.50;99.90;;;;;;6218653;23;20183;-92
2021/07/24 09:09:57;;;;;;;3.97;1.63;;;16.50;99.90;;;;;;6218009;23;20222;-92
2021/07/24 09:12:29;;;;;;;3.43;1.53;;;16.50;99.90;;;;;;6218588;23;20169;-92
2021/07/24 09:15:01;;;;;;;2.90;1.50;;;16.50;99.90;;;;;;6219255;23;20180;-92
2021/07/24 09:17:36;;;;;;;3.27;1.77;;;16.50;99.90;;;;;;6219975;23;20271;-91
2021/07/24 09:20:08;;;;;;;2.17;1.60;;;16.50;99.90;;;;;;6218678;23;20259;-92
2021/07/24 09:22:41;;;;;;;1.47;1.30;;;16.40;99.90;;;;;;6217926;23;20179;-91
2021/07/24 09:25:14;;;;;;;3.57;1.40;;;16.40;99.90;;;;;;6218126;23;20200;-91
2021/07/24 09:27:46;;;;;;;4.77;1.60;;;16.40;99.90;;;;;;6219957;23;20671;-91
2021/07/24 09:30:33;;;;;;;2.93;1.33;;;16.40;99.90;;;;;;6220217;23;20185;-91
2021/07/24 09:33:08;;;;;;;2.97;1.73;;;16.40;99.90;;;;;;6218375;23;20176;-91
2021/07/24 09:35:40;;;;;;;2.13;1.40;;;16.40;99.90;;;;;;6220442;23;20185;-91
2021/07/24 09:38:17;;;;;;;1.67;1.30;;;16.30;99.90;;;;;;6222111;23;20187;-91
2021/07/24 09:40:48;;;;;;;2.20;1.40;;;16.30;99.90;;;;;;6223256;23;20179;-91
2021/07/24 09:43:32;;;;;;;4.47;1.60;;;16.30;99.90;;;;;;6220669;23;20226;-91
2021/07/24 09:46:13;;;;;;;2.03;1.50;;;16.30;99.90;;;;;;6222672;23;20207;-91
2021/07/24 09:48:47;;;;;;;2.80;1.53;;;16.30;99.90;;;;;;6221672;23;20176;-92
2021/07/24 09:51:33;;;;;;;2.13;1.60;;;16.30;99.90;;;;;;6224024;23;20177;-91
2021/07/24 09:54:05;;;;;;;4.17;1.60;;;16.30;99.90;;;;;;6235777;23;20211;-91
2021/07/24 09:56:43;;;;;;;4.83;1.70;;;16.30;99.90;;;;;;6241349;22;20164;-92
2021/07/24 09:59:19;;;;;;;2.00;1.40;;;16.30;99.90;;;;;;6241448;22;20220;-92
2021/07/24 10:02:01;;;;;;;2.40;1.77;;;16.30;99.90;;;;;;6237295;23;20172;-91
2021/07/24 10:04:37;;;;;;;2.77;1.80;;;16.20;99.90;;;;;;6233589;23;20251;-91
2021/07/24 10:07:30;;;;;;;3.97;2.03;;;16.20;99.90;;;;;;6234298;23;20203;-91
2021/07/24 10:10:01;;;;;;;2.23;1.37;;;16.20;99.90;;;;;;6220763;23;20172;-91
2021/07/24 10:12:32;;;;;;;1.83;1.40;;;16.20;99.90;;;;;;6232925;23;20175;-92
2021/07/24 10:15:04;;;;;;;2.33;1.33;;;16.10;99.90;;;;;;6240530;23;20192;-91
2021/07/24 10:17:36;;;;;;;3.10;1.40;;;16.10;99.90;;;;;;6240611;23;20179;-91
2021/07/24 10:20:11;;;;;;;1.57;1.47;;;16.00;99.90;;;;;;6230339;23;20176;-91
2021/07/24 10:22:42;;;;;;;1.57;1.30;;;16.00;99.90;;;;;;6227989;23;20214;-90
2021/07/24 10:25:14;;;;;;;2.03;1.40;;;16.00;99.90;;;;;;6195611;23;20184;-91
2021/07/24 10:27:45;;;;;;;1.77;1.30;;;16.00;99.90;;;;;;6219144;23;20552;-91
2021/07/24 10:30:18;;;;;;;2.37;1.50;;;15.90;99.90;;;;;;6216961;23;20176;-90
2021/07/24 10:32:53;;;;;;;2.33;1.43;;;15.90;99.90;;;;;;6215790;23;20200;-91
2021/07/24 10:35:43;;;;;;;2.30;1.30;;;15.90;99.90;;;;;;6216621;23;20176;-92
2021/07/24 10:38:31;;;;;;;1.87;1.50;;;15.90;99.90;;;;;;6217118;23;20181;-91
2021/07/24 10:41:40;;;;;;;2.60;1.30;;;15.90;99.90;;;;;;6217668;23;20986;-91
2021/07/24 10:44:12;;;;;;;2.53;1.47;;;15.90;99.90;;;;;;6216745;23;20176;-91
2021/07/24 10:47:19;;;;;;;1.80;1.50;;;15.90;99.90;;;;;;6216879;23;20220;-91
2021/07/24 10:50:13;;;;;;;2.23;1.60;;;15.90;99.90;;;;;;6216440;23;20198;-91
2021/07/24 10:53:15;;;;;;;3.17;1.77;;;15.90;99.90;;;;;;6215978;23;20255;-91
2021/07/24 10:55:51;;;;;;;3.13;1.60;;;15.80;99.90;;;;;;6216346;23;20199;-92
2021/07/24 10:58:25;;;;;;;2.20;1.50;;;15.80;99.90;;;;;;6217599;23;20180;-91
2021/07/24 11:00:57;;;;;;;2.53;1.40;;;15.80;99.90;;;;;;6216738;23;20464;-91
2021/07/24 11:03:46;;;;;;;2.03;1.40;;;15.80;99.90;;;;;;6215426;23;20277;-91
2021/07/24 11:06:31;;;;;;;1.80;1.50;;;15.70;99.90;;;;;;6233246;23;20273;-91
2021/07/24 11:09:29;;;;;;;3.37;1.10;;;15.70;99.90;;;;;;6246679;23;20226;-91
2021/07/24 11:12:10;;;;;;;1.67;1.33;;;15.70;99.90;;;;;;6219319;23;20656;-91
2021/07/24 11:15:00;;;;;;;2.60;1.57;;;15.60;99.90;;;;;;6247105;23;20184;-91
2021/07/24 11:17:31;;;;;;;2.53;1.67;;;15.60;99.90;;;;;;6247429;23;20210;-91
2021/07/24 11:20:49;;;;;;;2.13;1.40;;;15.60;99.90;;;;;;6246746;23;20199;-91
2021/07/24 11:23:21;;;;;;;3.07;1.60;;;15.60;99.90;;;;;;6244088;23;20232;-91
2021/07/24 11:26:02;;;;;;;1.60;1.50;;;15.60;99.90;;;;;;6246719;23;20638;-90
2021/07/24 11:28:33;;;;;;;2.53;1.37;;;15.50;99.90;;;;;;6247515;23;20176;-91
2021/07/24 11:31:07;;;;;;;1.47;1.37;;;15.50;99.90;;;;;;6247743;23;20175;-91
2021/07/24 11:33:42;;;;;;;3.67;1.47;;;15.50;99.90;;;;;;6246887;23;20553;-91
2021/07/24 11:36:15;;;;;;;1.80;1.50;;;15.50;99.90;;;;;;6246956;23;20230;-91
2021/07/24 11:38:46;;;;;;;2.03;1.60;;;15.40;99.90;;;;;;6247766;23;20226;-91
2021/07/24 11:41:19;;;;;;;2.57;1.30;;;15.40;99.90;;;;;;6247846;23;20183;-91
2021/07/24 11:44:00;;;;;;;2.03;1.40;;;15.30;99.90;;;;;;6247821;23;20702;-91
2021/07/24 11:46:31;;;;;;;3.47;1.60;;;15.30;99.90;;;;;;6247428;23;20704;-90
2021/07/24 11:49:04;;;;;;;2.80;1.63;;;15.30;99.90;;;;;;6247885;23;20168;-92
2021/07/24 11:51:35;;;;;;;2.47;1.43;;;15.20;99.90;;;;;;6246347;23;20630;-91
2021/07/24 11:54:06;;;;;;;4.00;1.50;;;15.20;99.90;;;;;;6247930;23;20674;-91
2021/07/24 11:56:39;;;;;;;2.47;1.77;;;15.20;99.90;;;;;;6248290;23;20176;-92
2021/07/24 11:59:11;;;;;;;1.80;1.40;;;15.20;99.90;;;;;;6247754;23;20176;-91
2021/07/24 12:01:42;;;;;;;2.27;1.50;;;15.20;99.90;;;;;;6247095;23;20180;-91
2021/07/24 12:04:16;;;;;;;4.90;1.77;;;15.20;99.90;;;;;;6248178;23;20187;-91
2021/07/24 12:06:53;;;;;;;1.83;1.47;;;15.10;99.90;;;;;;6246441;23;20565;-91
2021/07/24 12:09:23;;;;;;;1.50;1.40;;;15.10;99.90;;;;;;6248157;23;20164;-91
2021/07/24 12:11:58;;;;;;;2.10;1.50;;;15.10;99.90;;;;;;6245450;23;20661;-91
2021/07/24 12:14:31;;;;;;;2.10;1.53;;;15.20;99.90;;;;;;6218993;23;20535;-91
2021/07/24 12:17:08;;;;;;;2.27;1.63;;;15.10;99.90;;;;;;6248382;23;20231;-91
2021/07/24 12:19:40;;;;;;;2.83;1.37;;;15.10;99.90;;;;;;6247758;23;20199;-91
2021/07/24 12:22:19;;;;;;;2.00;1.67;;;15.00;99.90;;;;;;6248882;23;20177;-91
2021/07/24 12:24:52;;;;;;;1.87;1.60;;;15.00;99.90;;;;;;6252726;23;20213;-91
2021/07/24 12:27:26;;;;;;;4.17;1.53;;;15.00;99.90;;;;;;6271670;22;20187;-90
2021/07/24 12:29:58;;;;;;;2.20;1.57;;;15.10;99.90;;;;;;6272082;22;20170;-91
2021/07/24 12:32:40;;;;;;;1.73;1.57;;;15.00;99.90;;;;;;6272307;22;20170;-90
2021/07/24 12:35:20;;;;;;;2.23;1.60;;;14.90;99.90;;;;;;6272884;22;20203;-91
2021/07/24 12:38:02;;;;;;;1.70;1.60;;;14.90;99.90;;;;;;6254567;23;20168;-91
2021/07/24 12:40:35;;;;;;;1.50;1.40;;;15.00;99.90;;;;;;6222795;23;20168;-90
2021/07/24 12:43:14;;;;;;;4.50;1.73;;;15.00;99.90;;;;;;6247145;23;20195;-91
2021/07/24 12:45:45;;;;;;;2.83;1.60;;;15.00;99.90;;;;;;6247809;23;20198;-91
2021/07/24 12:48:20;;;;;;;2.00;1.70;;;15.00;99.90;;;;;;6247865;23;20282;-91
2021/07/24 12:51:07;;;;;;;2.10;1.57;;;15.00;99.90;;;;;;6247943;23;20224;-91
2021/07/24 12:53:38;;;;;;;2.00;1.60;;;15.00;99.90;;;;;;6246631;23;20182;-91
2021/07/24 12:56:10;;;;;;;3.63;1.90;;;15.00;99.90;;;;;;6247752;23;20202;-90
2021/07/24 12:58:44;;;;;;;2.73;1.80;;;15.10;99.90;;;;;;6247645;23;20176;-91
2021/07/24 13:01:16;;;;;;;2.10;1.70;;;15.10;99.90;;;;;;6248209;23;20168;-90
2021/07/24 13:03:47;;;;;;;2.27;1.80;;;15.10;99.90;;;;;;6248566;23;20172;-91
2021/07/24 13:06:19;;;;;;;1.97;1.70;;;15.10;99.90;;;;;;6250500;23;20219;-91
2021/07/24 13:08:50;;;;;;;2.03;1.40;;;15.20;99.90;;;;;;6250203;23;20282;-90
2021/07/24 13:11:22;;;;;;;3.60;1.60;;;15.20;99.90;;;;;;6251507;23;20164;-91
2021/07/24 13:13:54;;;;;;;2.60;1.43;;;15.20;99.90;;;;;;6248922;23;20195;-90
2021/07/24 13:16:29;;;;;;;3.70;2.03;;;15.20;99.90;;;;;;6250258;23;20239;-91
2021/07/24 13:19:00;;;;;;;2.50;1.50;;;15.20;99.90;;;;;;6247655;23;20191;-90
2021/07/24 13:21:32;;;;;;;2.17;1.70;;;15.30;99.90;;;;;;6246203;23;20211;-90
2021/07/24 13:24:07;;;;;;;2.07;1.60;;;15.30;99.90;;;;;;6247230;23;20255;-90
2021/07/24 13:29:32;;;;;;;2.33;1.73;;;15.30;99.90;;;;;;6247084;23;20172;-89
2021/07/24 13:32:04;;;;;;;2.17;1.97;;;15.30;99.90;;;;;;6220098;23;20230;-90